createdAt,value
2019-04-20T00:02:04.464Z,14.40
2019-04-20T00:04:33.690Z,15.97
2019-04-20T00:07:01.832Z,13.40
2019-04-20T00:09:36.573Z,15.23
2019-04-20T00:12:12.103Z,15.17
2019-04-20T00:14:37.125Z,14.37
2019-04-20T00:17:05.236Z,15.53
2019-04-20T00:19:40.730Z,16.60
2019-04-20T00:22:14.910Z,17.63
2019-04-20T00:24:55.615Z,18.67
2019-04-20T00:27:42.785Z,16.20
2019-04-20T00:30:06.803Z,14.90
2019-04-20T00:32:42.607Z,14.20
2019-04-20T00:34:57.971Z,16.40
2019-04-20T00:37:27.765Z,13.97
2019-04-20T00:39:57.815Z,13.30
2019-04-20T00:42:33.885Z,14.03
2019-04-20T00:45:07.997Z,13.70
2019-04-20T00:47:44.648Z,12.63
2019-04-20T00:50:19.854Z,13.30
2019-04-20T00:52:51.328Z,12.80
2019-04-20T00:55:04.123Z,13.97
2019-04-20T00:57:41.787Z,13.67
2019-04-20T01:00:21.940Z,13.13
2019-04-20T01:02:49.283Z,13.97
2019-04-20T01:05:36.986Z,15.30
2019-04-20T01:08:02.146Z,15.43
2019-04-20T01:10:40.174Z,17.63
2019-04-20T01:13:10.820Z,14.67
2019-04-20T01:15:46.301Z,14.43
2019-04-20T01:18:05.133Z,16.27
2019-04-20T01:20:34.974Z,14.03
2019-04-20T01:23:10.094Z,15.20
2019-04-20T01:25:40.229Z,15.27
2019-04-20T01:28:24.199Z,15.07
2019-04-20T01:30:43.192Z,16.73
2019-04-20T01:33:22.631Z,15.33
2019-04-20T01:35:57.132Z,16.47
2019-04-20T01:38:26.296Z,14.23
2019-04-20T01:40:44.401Z,16.00
2019-04-20T01:43:14.250Z,15.43
2019-04-20T01:45:44.400Z,16.00
2019-04-20T01:48:22.043Z,16.67
2019-04-20T01:50:55.017Z,16.23
2019-04-20T01:53:39.284Z,17.70
2019-04-20T01:56:07.289Z,17.27
2019-04-20T01:58:50.652Z,15.77
2019-04-20T02:04:29.724Z,17.63
2019-04-20T02:06:59.913Z,18.50
2019-04-20T02:09:30.637Z,18.27
2019-04-20T02:12:06.946Z,19.03
2019-04-20T02:14:40.313Z,19.00
2019-04-20T02:17:30.076Z,18.90
2019-04-20T02:20:12.560Z,18.90
2019-04-20T02:22:45.124Z,20.03
2019-04-20T02:24:55.034Z,20.27
2019-04-20T02:27:31.347Z,23.33
2019-04-20T02:30:21.791Z,28.33
2019-04-20T02:33:07.481Z,27.17
2019-04-20T02:35:56.476Z,32.77
2019-04-20T02:38:23.487Z,29.93
2019-04-20T02:43:52.701Z,32.80
2019-04-20T02:45:51.041Z,47.93
2019-04-20T02:48:29.791Z,31.33
2019-04-20T02:50:58.991Z,32.13
2019-04-20T02:56:03.865Z,32.73
2019-04-20T02:58:38.214Z,36.33
2019-04-20T03:00:58.675Z,36.20
2019-04-20T03:03:19.507Z,39.10
2019-04-20T03:05:46.126Z,41.00
2019-04-20T03:08:22.391Z,42.13
2019-04-20T03:11:11.725Z,41.60
2019-04-20T03:13:32.264Z,38.30
2019-04-20T03:16:02.260Z,39.03
2019-04-20T03:18:33.823Z,35.70
2019-04-20T03:21:09.655Z,32.97
2019-04-20T03:23:44.443Z,33.60
2019-04-20T03:26:12.167Z,34.80
2019-04-20T03:29:05.365Z,34.33
2019-04-20T03:32:15.040Z,33.57
2019-04-20T03:34:47.421Z,32.70
2019-04-20T03:37:01.994Z,32.27
2019-04-20T03:39:25.592Z,31.50
2019-04-20T03:41:40.548Z,35.10
2019-04-20T03:44:10.541Z,35.73
2019-04-20T03:46:43.481Z,37.50
2019-04-20T03:49:35.217Z,37.20
2019-04-20T03:52:02.683Z,36.60
2019-04-20T03:54:30.803Z,35.70
2019-04-20T03:57:24.776Z,38.10
2019-04-20T03:59:55.023Z,37.43
2019-04-20T04:03:00.429Z,35.20
2019-04-20T04:05:25.020Z,36.90
2019-04-20T04:07:45.319Z,35.33
2019-04-20T04:10:24.936Z,35.00
2019-04-20T04:13:09.525Z,33.87
2019-04-20T04:15:46.773Z,37.27
2019-04-20T04:18:19.142Z,36.43
2019-04-20T04:20:50.078Z,33.83
2019-04-20T04:23:32.635Z,34.77
2019-04-20T04:26:05.998Z,28.03
2019-04-20T04:28:31.074Z,30.93
2019-04-20T04:31:08.420Z,28.40
2019-04-20T04:36:04.857Z,30.40
2019-04-20T04:38:43.448Z,24.70
2019-04-20T04:41:19.974Z,25.47
2019-04-20T04:43:44.084Z,25.77
2019-04-20T04:45:57.330Z,28.93
2019-04-20T04:48:34.422Z,24.77
2019-04-20T04:51:07.052Z,24.27
2019-04-20T04:53:44.267Z,23.77
2019-04-20T04:56:07.186Z,21.23
2019-04-20T04:58:34.581Z,30.87
2019-04-20T05:01:08.309Z,23.00
2019-04-20T05:04:04.987Z,20.73
2019-04-20T05:06:29.130Z,25.50
2019-04-20T05:08:48.932Z,21.97
2019-04-20T05:11:15.200Z,20.03
2019-04-20T05:13:54.663Z,19.07
2019-04-20T05:16:38.484Z,18.50
2019-04-20T05:19:13.332Z,18.83
2019-04-20T05:21:58.709Z,23.50
2019-04-20T05:25:04.685Z,21.30
2019-04-20T05:27:39.122Z,22.60
2019-04-20T05:29:52.883Z,28.83
2019-04-20T05:32:33.731Z,20.67
2019-04-20T05:35:15.108Z,24.87
2019-04-20T05:37:51.320Z,26.07
2019-04-20T05:40:16.538Z,24.30
2019-04-20T05:43:04.727Z,21.07
2019-04-20T05:45:32.330Z,19.63
2019-04-20T05:48:04.567Z,19.60
2019-04-20T05:50:37.534Z,24.13
2019-04-20T05:53:11.638Z,19.40
2019-04-20T05:55:40.031Z,21.07
2019-04-20T05:58:12.234Z,21.97
2019-04-20T06:00:47.754Z,18.10
2019-04-20T06:03:10.804Z,21.47
2019-04-20T06:05:55.521Z,17.17
2019-04-20T06:08:26.423Z,16.27
2019-04-20T06:10:49.445Z,16.60
2019-04-20T06:13:30.204Z,17.43
2019-04-20T06:16:15.696Z,16.97
2019-04-20T06:18:42.276Z,16.93
2019-04-20T06:21:35.476Z,16.37
2019-04-20T06:24:02.610Z,17.17
2019-04-20T06:26:47.074Z,26.97
2019-04-20T06:29:18.378Z,14.43
2019-04-20T06:31:57.990Z,15.83
2019-04-20T06:34:33.358Z,15.00
2019-04-20T06:36:57.354Z,13.93
2019-04-20T06:42:10.824Z,13.77
2019-04-20T06:44:37.015Z,12.80
2019-04-20T06:47:16.455Z,15.60
2019-04-20T06:49:51.585Z,14.20
2019-04-20T06:52:33.508Z,15.10
2019-04-20T06:55:03.384Z,20.67
2019-04-20T06:57:40.573Z,9.50
2019-04-20T07:02:46.814Z,13.77
2019-04-20T07:05:28.682Z,13.40
2019-04-20T07:07:47.972Z,15.63
2019-04-20T07:10:18.318Z,13.27
2019-04-20T07:12:40.863Z,15.60
2019-04-20T07:15:17.737Z,15.67
2019-04-20T07:17:57.551Z,14.40
2019-04-20T07:20:42.080Z,17.50
2019-04-20T07:23:18.433Z,11.73
2019-04-20T07:25:39.050Z,14.70
2019-04-20T07:28:14.458Z,11.83
2019-04-20T07:30:42.330Z,11.13
2019-04-20T07:33:12.664Z,15.23
2019-04-20T07:35:40.532Z,10.13
2019-04-20T07:38:27.946Z,12.80
2019-04-20T07:40:44.469Z,13.80
2019-04-20T07:43:07.938Z,11.77
2019-04-20T07:45:45.948Z,12.47
2019-04-20T07:48:29.523Z,11.37
2019-04-20T07:50:41.035Z,10.97
2019-04-20T07:53:18.572Z,13.80
2019-04-20T07:55:55.131Z,10.97
2019-04-20T07:58:17.283Z,11.43
2019-04-20T08:01:15.408Z,14.37
2019-04-20T08:03:38.066Z,12.57
2019-04-20T08:06:14.519Z,14.20
2019-04-20T08:08:53.073Z,13.70
2019-04-20T08:11:22.864Z,11.77
2019-04-20T08:14:05.896Z,11.00
2019-04-20T08:16:40.034Z,10.43
2019-04-20T08:19:01.262Z,13.20
2019-04-20T08:21:38.735Z,12.27
2019-04-20T08:24:07.386Z,14.30
2019-04-20T08:26:27.163Z,12.20
2019-04-20T08:29:01.395Z,11.27
2019-04-20T08:31:47.403Z,12.47
2019-04-20T08:34:33.683Z,9.27
2019-04-20T08:37:03.262Z,9.07
2019-04-20T08:42:18.646Z,11.63
2019-04-20T08:47:12.090Z,11.67
2019-04-20T08:49:43.873Z,12.00
2019-04-20T08:52:31.918Z,11.33
2019-04-20T08:54:40.473Z,9.43
2019-04-20T08:56:58.046Z,9.10
2019-04-20T08:59:25.366Z,10.13
2019-04-20T09:01:58.972Z,8.23
2019-04-20T09:04:38.809Z,8.00
2019-04-20T09:07:05.601Z,8.30
2019-04-20T09:09:49.165Z,7.77
2019-04-20T09:12:14.765Z,7.77
2019-04-20T09:14:34.751Z,7.30
2019-04-20T09:17:10.626Z,8.20
2019-04-20T09:19:53.573Z,7.57
2019-04-20T09:22:45.675Z,9.27
2019-04-20T09:25:42.716Z,7.77
2019-04-20T09:27:46.788Z,7.17
2019-04-20T09:30:25.705Z,7.17
2019-04-20T09:33:06.843Z,6.10
2019-04-20T09:35:37.129Z,7.27
2019-04-20T09:38:11.832Z,8.00
2019-04-20T09:40:46.153Z,8.37
2019-04-20T09:43:25.845Z,10.67
2019-04-20T09:46:00.028Z,9.23
2019-04-20T09:48:34.729Z,8.53
2019-04-20T09:51:20.522Z,12.03
2019-04-20T09:53:39.325Z,9.30
2019-04-20T09:56:15.754Z,8.07
2019-04-20T09:58:55.145Z,7.77
2019-04-20T10:01:18.149Z,10.00
2019-04-20T10:03:35.067Z,9.83
2019-04-20T10:06:05.488Z,11.80
2019-04-20T10:08:42.057Z,10.53
2019-04-20T10:11:07.647Z,7.00
2019-04-20T10:13:38.345Z,8.73
2019-04-20T10:16:08.090Z,8.93
2019-04-20T10:18:41.410Z,8.03
2019-04-20T10:21:10.106Z,9.80
2019-04-20T10:23:40.676Z,9.33
2019-04-20T10:26:10.383Z,8.57
2019-04-20T10:28:39.813Z,10.40
2019-04-20T10:31:10.570Z,8.30
2019-04-20T10:33:40.205Z,8.27
2019-04-20T10:36:19.518Z,11.03
2019-04-20T10:38:48.942Z,9.27
2019-04-20T10:41:29.584Z,8.43
2019-04-20T10:43:51.006Z,9.50
2019-04-20T10:46:20.767Z,9.77
2019-04-20T10:48:53.247Z,10.67
2019-04-20T10:51:21.787Z,10.53
2019-04-20T10:53:52.409Z,10.43
2019-04-20T10:56:23.208Z,10.17
2019-04-20T10:58:53.813Z,10.83
2019-04-20T11:01:23.405Z,12.27
2019-04-20T11:03:52.837Z,9.93
2019-04-20T11:06:22.719Z,10.10
2019-04-20T11:08:52.901Z,12.63
2019-04-20T11:11:26.474Z,16.13
2019-04-20T11:13:53.719Z,10.47
2019-04-20T11:16:24.267Z,13.53
2019-04-20T11:18:53.792Z,8.87
2019-04-20T11:21:24.612Z,11.33
2019-04-20T11:23:56.164Z,8.93
2019-04-20T11:26:26.455Z,11.33
2019-04-20T11:28:56.091Z,9.63
2019-04-20T11:31:32.868Z,8.23
2019-04-20T11:33:56.823Z,12.63
2019-04-20T11:36:27.427Z,8.00
2019-04-20T11:38:56.921Z,7.70
2019-04-20T11:41:29.463Z,8.00
2019-04-20T11:43:57.874Z,7.10
2019-04-20T11:46:27.353Z,8.33
2019-04-20T11:48:57.267Z,8.43
2019-04-20T11:51:27.574Z,7.90
2019-04-20T11:53:58.439Z,8.50
2019-04-20T11:56:33.459Z,6.37
2019-04-20T11:58:59.042Z,6.90
2019-04-20T12:01:59.059Z,9.97
2019-04-20T12:04:40.382Z,7.33
2019-04-20T12:07:01.686Z,10.80
2019-04-20T12:09:33.448Z,6.53
2019-04-20T12:12:16.777Z,6.90
2019-04-20T12:14:34.636Z,7.17
2019-04-20T12:17:04.184Z,8.57
2019-04-20T12:19:36.104Z,9.67
2019-04-20T12:22:05.831Z,7.47
2019-04-20T12:24:36.290Z,6.90
2019-04-20T12:27:07.008Z,7.03
2019-04-20T12:29:36.408Z,8.50
2019-04-20T12:32:08.572Z,7.43
2019-04-20T12:34:37.178Z,6.80
2019-04-20T12:37:07.145Z,6.90
2019-04-20T12:39:37.337Z,7.90
2019-04-20T12:42:09.618Z,6.47
2019-04-20T12:44:39.643Z,9.87
2019-04-20T12:47:28.198Z,7.67
2019-04-20T12:49:57.534Z,7.37
2019-04-20T12:52:28.215Z,7.33
2019-04-20T12:55:01.593Z,9.07
2019-04-20T12:57:30.039Z,7.00
2019-04-20T13:00:01.670Z,9.00
2019-04-20T13:02:31.503Z,7.67
2019-04-20T13:05:01.695Z,7.60
2019-04-20T13:07:41.162Z,6.47
2019-04-20T13:10:04.008Z,8.27
2019-04-20T13:12:56.440Z,9.57
2019-04-20T13:15:38.213Z,5.97
2019-04-20T13:18:09.493Z,6.57
2019-04-20T13:20:39.732Z,6.97
2019-04-20T13:23:10.851Z,7.30
2019-04-20T13:25:41.243Z,7.77
2019-04-20T13:28:10.746Z,8.07
2019-04-20T13:30:40.174Z,7.60
2019-04-20T13:33:12.084Z,6.87
2019-04-20T13:35:41.587Z,7.27
2019-04-20T13:38:12.296Z,7.40
2019-04-20T13:40:43.947Z,6.97
2019-04-20T13:43:14.608Z,9.17
2019-04-20T13:45:44.852Z,7.20
2019-04-20T13:48:15.122Z,9.30
2019-04-20T13:50:44.668Z,7.93
2019-04-20T13:53:14.946Z,8.17
2019-04-20T13:55:45.684Z,7.67
2019-04-20T13:58:33.863Z,9.73
2019-04-20T14:01:22.949Z,6.97
2019-04-20T14:04:05.238Z,9.97
2019-04-20T14:06:35.381Z,12.83
2019-04-20T14:09:09.605Z,9.73
2019-04-20T14:11:39.292Z,11.03
2019-04-20T14:14:08.919Z,7.20
2019-04-20T14:16:41.120Z,8.90
2019-04-20T14:19:11.767Z,9.10
2019-04-20T14:21:41.733Z,14.17
2019-04-20T14:24:13.067Z,10.07
2019-04-20T14:26:44.565Z,7.77
2019-04-20T14:29:14.811Z,6.77
2019-04-20T14:31:45.989Z,13.97
2019-04-20T14:34:15.539Z,8.30
2019-04-20T14:36:46.743Z,9.50
2019-04-20T14:39:16.369Z,10.83
2019-04-20T14:41:46.551Z,10.00
2019-04-20T14:44:16.562Z,9.17
2019-04-20T14:46:45.927Z,7.80
2019-04-20T14:49:16.628Z,7.10
2019-04-20T14:51:46.101Z,10.30
2019-04-20T14:54:17.073Z,9.30
2019-04-20T14:56:47.573Z,9.10
2019-04-20T14:59:31.559Z,9.07
2019-04-20T15:02:06.391Z,13.10
2019-04-20T15:04:37.083Z,7.60
2019-04-20T15:07:06.724Z,8.73
2019-04-20T15:09:38.752Z,9.93
2019-04-20T15:12:08.823Z,9.17
2019-04-20T15:14:38.657Z,7.80
2019-04-20T15:17:12.088Z,8.33
2019-04-20T15:20:01.443Z,9.97
2019-04-20T15:22:41.399Z,9.63
2019-04-20T15:25:11.733Z,15.40
2019-04-20T15:27:44.734Z,8.90
2019-04-20T15:30:14.136Z,13.53
2019-04-20T15:32:44.937Z,9.10
2019-04-20T15:35:17.820Z,7.77
2019-04-20T15:37:46.943Z,7.57
2019-04-20T15:40:17.282Z,9.10
2019-04-20T15:42:56.647Z,7.23
2019-04-20T15:45:19.230Z,12.40
2019-04-20T15:47:49.966Z,8.23
2019-04-20T15:50:20.230Z,9.67
2019-04-20T15:52:54.467Z,12.27
2019-04-20T15:55:29.604Z,10.47
2019-04-20T15:57:53.495Z,8.93
2019-04-20T16:00:24.475Z,7.47
2019-04-20T16:03:05.344Z,8.33
2019-04-20T16:06:01.042Z,7.03
2019-04-20T16:08:36.482Z,7.33
2019-04-20T16:11:06.995Z,7.87
2019-04-20T16:13:40.435Z,10.20
2019-04-20T16:16:09.797Z,7.43
2019-04-20T16:18:40.947Z,11.20
2019-04-20T16:21:17.830Z,8.77
2019-04-20T16:23:50.675Z,7.27
2019-04-20T16:26:44.010Z,9.77
2019-04-20T16:29:15.453Z,9.17
2019-04-20T16:31:47.221Z,8.20
2019-04-20T16:34:16.817Z,10.97
2019-04-20T16:36:46.629Z,8.63
2019-04-20T16:39:16.533Z,8.83
2019-04-20T16:41:46.557Z,7.77
2019-04-20T16:44:17.410Z,9.20
2019-04-20T16:46:48.069Z,9.67
2019-04-20T16:49:17.508Z,7.43
2019-04-20T16:51:47.153Z,8.50
2019-04-20T16:54:17.815Z,7.03
2019-04-20T16:56:48.552Z,8.90
2019-04-20T16:59:20.614Z,10.33
2019-04-20T17:01:49.077Z,7.37
2019-04-20T17:04:22.065Z,8.60
2019-04-20T17:07:08.118Z,7.43
2019-04-20T17:09:37.878Z,10.87
2019-04-20T17:12:07.824Z,8.23
2019-04-20T17:14:37.882Z,9.93
2019-04-20T17:17:07.783Z,8.60
2019-04-20T17:19:37.652Z,7.43
2019-04-20T17:22:09.864Z,7.30
2019-04-20T17:24:43.125Z,8.63
2019-04-20T17:27:33.014Z,7.07
2019-04-20T17:30:22.963Z,8.03
2019-04-20T17:32:52.568Z,10.13
2019-04-20T17:35:37.307Z,8.53
2019-04-20T17:38:14.245Z,7.13
2019-04-20T17:41:01.296Z,8.50
2019-04-20T17:43:25.130Z,8.67
2019-04-20T17:45:54.326Z,7.13
2019-04-20T17:48:33.285Z,10.57
2019-04-20T17:51:10.852Z,10.53
2019-04-20T17:53:47.381Z,10.73
2019-04-20T17:56:10.412Z,8.23
2019-04-20T17:58:41.439Z,7.20
2019-04-20T18:01:59.608Z,7.73
2019-04-20T18:04:50.711Z,7.53
2019-04-20T18:07:04.431Z,8.53
2019-04-20T18:09:44.737Z,8.00
2019-04-20T18:11:58.063Z,8.47
2019-04-20T18:14:43.318Z,7.90
2019-04-20T18:17:34.683Z,12.10
2019-04-20T18:20:00.857Z,9.40
2019-04-20T18:22:31.755Z,7.37
2019-04-20T18:25:19.168Z,8.93
2019-04-20T18:27:56.312Z,10.37
2019-04-20T18:30:18.676Z,9.60
2019-04-20T18:32:38.479Z,8.47
2019-04-20T18:35:16.264Z,8.23
2019-04-20T18:37:52.606Z,8.77
2019-04-20T18:40:29.045Z,8.80
2019-04-20T18:42:59.992Z,10.67
2019-04-20T18:45:33.734Z,8.50
2019-04-20T18:48:14.632Z,10.03
2019-04-20T18:50:31.947Z,9.97
2019-04-20T18:52:53.994Z,9.27
2019-04-20T18:55:37.712Z,14.83
2019-04-20T18:57:55.157Z,10.97
2019-04-20T19:00:31.573Z,9.40
2019-04-20T19:03:01.315Z,8.40
2019-04-20T19:05:29.486Z,9.27
2019-04-20T19:08:03.352Z,11.63
2019-04-20T19:10:34.842Z,8.60
2019-04-20T19:13:09.948Z,10.47
2019-04-20T19:16:03.595Z,9.60
2019-04-20T19:18:57.382Z,8.30
2019-04-20T19:21:13.304Z,11.07
2019-04-20T19:23:53.347Z,8.70
2019-04-20T19:26:19.137Z,8.53
2019-04-20T19:28:52.083Z,9.47
2019-04-20T19:31:35.519Z,12.53
2019-04-20T19:34:09.336Z,8.57
2019-04-20T19:36:28.815Z,10.07
2019-04-20T19:39:08.586Z,7.80
2019-04-20T19:41:32.084Z,8.77
2019-04-20T19:44:06.437Z,9.03
2019-04-20T19:46:49.218Z,10.20
2019-04-20T19:49:08.148Z,9.63
2019-04-20T19:51:49.402Z,7.47
2019-04-20T19:54:24.173Z,11.87
2019-04-20T19:56:48.610Z,9.20
2019-04-20T19:59:11.719Z,10.00
2019-04-20T20:01:35.724Z,10.60
2019-04-20T20:04:09.257Z,10.83
2019-04-20T20:06:45.351Z,7.90
2019-04-20T20:09:12.206Z,10.80
2019-04-20T20:11:42.908Z,9.53
2019-04-20T20:14:13.008Z,9.57
2019-04-20T20:17:00.864Z,11.87
2019-04-20T20:19:30.527Z,9.37
2019-04-20T20:22:00.278Z,11.07
2019-04-20T20:24:17.414Z,8.83
2019-04-20T20:26:52.711Z,9.30
2019-04-20T20:29:26.225Z,12.03
2019-04-20T20:32:02.293Z,8.27
2019-04-20T20:34:26.438Z,9.63
2019-04-20T20:36:55.961Z,12.43
2019-04-20T20:39:28.697Z,9.30
2019-04-20T20:42:01.587Z,8.90
2019-04-20T20:44:33.013Z,10.63
2019-04-20T20:47:05.546Z,9.40
2019-04-20T20:49:48.529Z,9.77
2019-04-20T20:52:17.400Z,8.43
2019-04-20T20:54:41.179Z,8.23
2019-04-20T20:57:05.643Z,9.30
2019-04-20T20:59:40.237Z,8.80
2019-04-20T21:02:08.838Z,8.80
2019-04-20T21:04:33.493Z,8.30
2019-04-20T21:07:02.916Z,10.57
2019-04-20T21:09:33.448Z,9.17
2019-04-20T21:12:08.480Z,10.10
2019-04-20T21:14:38.416Z,12.53
2019-04-20T21:17:13.184Z,9.37
2019-04-20T21:19:55.003Z,11.13
2019-04-20T21:22:15.075Z,11.30
2019-04-20T21:24:42.063Z,8.27
2019-04-20T21:27:15.282Z,9.37
2019-04-20T21:29:47.288Z,10.40
2019-04-20T21:32:16.543Z,10.07
2019-04-20T21:34:51.859Z,9.23
2019-04-20T21:37:22.337Z,14.27
2019-04-20T21:39:55.607Z,10.40
2019-04-20T21:42:22.677Z,11.40
2019-04-20T21:44:52.307Z,9.10
2019-04-20T21:47:27.466Z,11.93
2019-04-20T21:50:09.573Z,8.40
2019-04-20T21:52:32.342Z,10.00
2019-04-20T21:54:56.188Z,11.50
2019-04-20T21:57:26.222Z,7.83
2019-04-20T22:00:02.576Z,9.97
2019-04-20T22:02:32.832Z,8.27
2019-04-20T22:04:59.180Z,10.07
2019-04-20T22:07:28.560Z,11.73
2019-04-20T22:09:58.506Z,11.20
2019-04-20T22:12:37.585Z,11.13
2019-04-20T22:15:06.631Z,13.40
2019-04-20T22:17:33.047Z,11.03
2019-04-20T22:20:14.418Z,10.93
2019-04-20T22:22:50.807Z,12.60
2019-04-20T22:25:23.055Z,9.37
2019-04-20T22:27:36.705Z,10.47
2019-04-20T22:30:08.091Z,10.33
2019-04-20T22:32:45.016Z,11.50
2019-04-20T22:35:12.525Z,10.10
2019-04-20T22:37:47.679Z,8.90
2019-04-20T22:40:22.068Z,10.40
2019-04-20T22:42:54.319Z,10.30
2019-04-20T22:45:21.148Z,9.03
2019-04-20T22:47:52.967Z,9.73
2019-04-20T22:50:34.028Z,8.53
2019-04-20T22:53:06.751Z,10.20
2019-04-20T22:55:47.804Z,8.20
2019-04-20T22:58:03.269Z,16.80
2019-04-20T23:00:36.435Z,9.40
2019-04-20T23:02:58.804Z,8.77
2019-04-20T23:05:28.855Z,11.70
2019-04-20T23:07:58.957Z,10.50
2019-04-20T23:10:34.842Z,13.00
2019-04-20T23:12:59.807Z,10.37
2019-04-20T23:15:30.558Z,10.93
2019-04-20T23:18:00.127Z,12.00
2019-04-20T23:20:32.633Z,10.17
2019-04-20T23:23:00.878Z,10.27
2019-04-20T23:25:33.359Z,12.27
2019-04-20T23:28:09.869Z,12.10
2019-04-20T23:30:38.869Z,13.33
2019-04-20T23:33:05.803Z,11.67
2019-04-20T23:35:37.574Z,13.47
2019-04-20T23:38:11.025Z,15.30
2019-04-20T23:40:37.542Z,12.00
2019-04-20T23:43:22.916Z,12.30
2019-04-20T23:46:03.404Z,12.27
2019-04-20T23:48:42.715Z,13.30
2019-04-20T23:51:35.287Z,14.43
2019-04-20T23:53:53.952Z,14.33
2019-04-20T23:56:16.765Z,14.13
2019-04-20T23:58:49.572Z,13.83
